Clifftop, West Virginia
Current Conditions -  °F | °C
As of 10:51 AM on Sunday 25 Jan 2015 (Local Time) from KBKW Reporting Station
Clear Clear  
Wind Chill: 33°   Ceiling: Unl
Heat Index: 38°   Visibility: 10mi
Dew Point: 29°   Wind: 6mph
Humidity: 70%   Direction: 210°SSW
Pressure: 29.8"   Gusts: NA
Location:  37.8817°N, 80.9739°W
Report Text: KBKW 251551Z AUTO 21005KT 10SM CLR 03/M02 A2980 RMK AO2 SLP113 T00331017
Loading
Personal Weather Stations






























Interactive Weather Map New forecast layout! Learn more

10-Day Weather Forecast

Advertisements
Track Severe Weather on mobile